sensor_id;sensor_type;location;lat;lon;timestamp;temperature;humidity
14154;DHT22;7157;53.144;7.570;2024-03-06T00:04:31;5.89;93.51
14154;DHT22;7157;53.144;7.570;2024-03-06T00:14:36;5.86;93.80
14154;DHT22;7157;53.144;7.570;2024-03-06T00:24:39;5.84;93.56
14154;DHT22;7157;53.144;7.570;2024-03-06T00:34:43;5.81;94.31
14154;DHT22;7157;53.144;7.570;2024-03-06T00:44:46;5.86;94.04
14154;DHT22;7157;53.144;7.570;2024-03-06T00:54:50;5.86;94.57
14154;DHT22;7157;53.144;7.570;2024-03-06T01:04:53;5.82;95.21
14154;DHT22;7157;53.144;7.570;2024-03-06T01:14:58;5.74;95.66
14154;DHT22;7157;53.144;7.570;2024-03-06T01:25:01;5.80;96.00
14154;DHT22;7157;53.144;7.570;2024-03-06T01:35:06;5.79;96.18
14154;DHT22;7157;53.144;7.570;2024-03-06T01:45:09;5.74;96.77
14154;DHT22;7157;53.144;7.570;2024-03-06T01:55:14;5.76;97.00
14154;DHT22;7157;53.144;7.570;2024-03-06T02:05:17;5.84;96.47
14154;DHT22;7157;53.144;7.570;2024-03-06T02:15:22;5.72;97.02
14154;DHT22;7157;53.144;7.570;2024-03-06T02:25:26;5.77;97.30
14154;DHT22;7157;53.144;7.570;2024-03-06T02:35:29;5.72;98.33
14154;DHT22;7157;53.144;7.570;2024-03-06T02:45:33;5.72;99.12
14154;DHT22;7157;53.144;7.570;2024-03-06T02:55:36;5.81;99.48
14154;DHT22;7157;53.144;7.570;2024-03-06T03:05:40;5.77;99.78
14154;DHT22;7157;53.144;7.570;2024-03-06T03:15:43;5.77;100.22
14154;DHT22;7157;53.144;7.570;2024-03-06T03:25:47;5.77;99.96
14154;DHT22;7157;53.144;7.570;2024-03-06T03:35:50;5.81;99.91
14154;DHT22;7157;53.144;7.570;2024-03-06T03:45:54;5.82;100.00
14154;DHT22;7157;53.144;7.570;2024-03-06T03:55:57;5.79;99.95
14154;DHT22;7157;53.144;7.570;2024-03-06T04:06:01;5.79;99.79
14154;DHT22;7157;53.144;7.570;2024-03-06T04:16:05;5.80;99.78
14154;DHT22;7157;53.144;7.570;2024-03-06T04:26:10;5.74;99.84
14154;DHT22;7157;53.144;7.570;2024-03-06T04:36:13;5.79;99.32
14154;DHT22;7157;53.144;7.570;2024-03-06T04:46:17;5.92;99.62
14154;DHT22;7157;53.144;7.570;2024-03-06T04:56:20;5.86;99.50
14154;DHT22;7157;53.144;7.570;2024-03-06T05:06:25;5.80;99.60
14154;DHT22;7157;53.144;7.570;2024-03-06T05:16:45;5.77;99.74
14154;DHT22;7157;53.144;7.570;2024-03-06T05:27:07;5.81;99.69
14154;DHT22;7157;53.144;7.570;2024-03-06T05:37:28;5.72;99.54
14154;DHT22;7157;53.144;7.570;2024-03-06T05:47:50;5.76;99.65
14154;DHT22;7157;53.144;7.570;2024-03-06T05:58:10;5.72;99.34
14154;DHT22;7157;53.144;7.570;2024-03-06T06:08:18;5.76;98.88
14154;DHT22;7157;53.144;7.570;2024-03-06T06:18:21;5.81;98.47
14154;DHT22;7157;53.144;7.570;2024-03-06T06:28:25;5.86;98.61
14154;DHT22;7157;53.144;7.570;2024-03-06T06:38:28;5.92;98.35
14154;DHT22;7157;53.144;7.570;2024-03-06T06:48:32;5.90;98.45
14154;DHT22;7157;53.144;7.570;2024-03-06T06:58:36;5.99;98.40
14154;DHT22;7157;53.144;7.570;2024-03-06T07:08:40;5.93;98.17
14154;DHT22;7157;53.144;7.570;2024-03-06T07:18:43;5.96;97.80
14154;DHT22;7157;53.144;7.570;2024-03-06T07:28:47;6.14;97.46
14154;DHT22;7157;53.144;7.570;2024-03-06T07:38:50;6.07;96.94
14154;DHT22;7157;53.144;7.570;2024-03-06T07:48:54;6.12;97.30
14154;DHT22;7157;53.144;7.570;2024-03-06T07:58:57;6.25;96.74
14154;DHT22;7157;53.144;7.570;2024-03-06T08:09:02;6.23;95.61
14154;DHT22;7157;53.144;7.570;2024-03-06T08:19:05;6.17;95.80
14154;DHT22;7157;53.144;7.570;2024-03-06T08:29:09;6.33;95.70
14154;DHT22;7157;53.144;7.570;2024-03-06T08:39:12;6.46;94.66
14154;DHT22;7157;53.144;7.570;2024-03-06T08:49:19;6.52;95.20
14154;DHT22;7157;53.144;7.570;2024-03-06T08:59:22;6.73;94.62
14154;DHT22;7157;53.144;7.570;2024-03-06T09:09:26;7.22;93.49
14154;DHT22;7157;53.144;7.570;2024-03-06T09:19:31;7.56;92.03
14154;DHT22;7157;53.144;7.570;2024-03-06T09:29:36;7.85;89.68
14154;DHT22;7157;53.144;7.570;2024-03-06T09:39:38;8.15;89.44
14154;DHT22;7157;53.144;7.570;2024-03-06T09:49:43;8.48;89.14
14154;DHT22;7157;53.144;7.570;2024-03-06T09:59:46;8.77;87.09
14154;DHT22;7157;53.144;7.570;2024-03-06T10:09:50;9.53;84.10
14154;DHT22;7157;53.144;7.570;2024-03-06T10:19:53;10.08;82.49
14154;DHT22;7157;53.144;7.570;2024-03-06T10:30:04;10.68;76.93
14154;DHT22;7157;53.144;7.570;2024-03-06T10:40:14;11.71;76.02
14154;DHT22;7157;53.144;7.570;2024-03-06T10:50:21;11.92;72.06
14154;DHT22;7157;53.144;7.570;2024-03-06T11:00:25;11.66;71.19
14154;DHT22;7157;53.144;7.570;2024-03-06T11:10:32;12.17;71.12
14154;DHT22;7157;53.144;7.570;2024-03-06T11:20:35;11.88;71.21
14154;DHT22;7157;53.144;7.570;2024-03-06T11:30:45;11.98;67.77
14154;DHT22;7157;53.144;7.570;2024-03-06T11:40:49;11.62;70.35
14154;DHT22;7157;53.144;7.570;2024-03-06T11:50:58;11.75;70.38
14154;DHT22;7157;53.144;7.570;2024-03-06T12:01:01;11.90;68.76
14154;DHT22;7157;53.144;7.570;2024-03-06T12:11:06;12.22;70.07
14154;DHT22;7157;53.144;7.570;2024-03-06T12:21:10;21.08;42.44
14154;DHT22;7157;53.144;7.570;2024-03-06T12:31:16;19.72;42.05
14154;DHT22;7157;53.144;7.570;2024-03-06T12:41:19;24.73;31.69
14154;DHT22;7157;53.144;7.570;2024-03-06T12:51:23;18.55;44.64
14154;DHT22;7157;53.144;7.570;2024-03-06T13:01:26;17.69;45.83
14154;DHT22;7157;53.144;7.570;2024-03-06T13:11:30;16.86;48.75
14154;DHT22;7157;53.144;7.570;2024-03-06T13:21:33;15.03;53.81
14154;DHT22;7157;53.144;7.570;2024-03-06T13:31:38;14.33;55.98
14154;DHT22;7157;53.144;7.570;2024-03-06T13:41:41;13.70;58.24
14154;DHT22;7157;53.144;7.570;2024-03-06T13:51:45;13.10;61.42
14154;DHT22;7157;53.144;7.570;2024-03-06T14:01:48;12.82;63.40
14154;DHT22;7157;53.144;7.570;2024-03-06T14:11:52;12.87;64.03
14154;DHT22;7157;53.144;7.570;2024-03-06T14:21:56;13.24;63.31
14154;DHT22;7157;53.144;7.570;2024-03-06T14:32:06;13.73;61.82
14154;DHT22;7157;53.144;7.570;2024-03-06T14:42:10;13.32;62.46
14154;DHT22;7157;53.144;7.570;2024-03-06T14:52:14;13.40;62.57
14154;DHT22;7157;53.144;7.570;2024-03-06T15:02:17;12.87;64.48
14154;DHT22;7157;53.144;7.570;2024-03-06T15:12:21;12.67;66.04
14154;DHT22;7157;53.144;7.570;2024-03-06T15:22:24;12.32;66.33
14154;DHT22;7157;53.144;7.570;2024-03-06T15:32:29;11.66;69.52
14154;DHT22;7157;53.144;7.570;2024-03-06T15:42:32;11.29;70.80
14154;DHT22;7157;53.144;7.570;2024-03-06T15:52:37;10.99;73.56
14154;DHT22;7157;53.144;7.570;2024-03-06T16:02:40;11.10;74.35
14154;DHT22;7157;53.144;7.570;2024-03-06T16:12:44;11.12;75.09
14154;DHT22;7157;53.144;7.570;2024-03-06T16:22:47;10.83;75.96
14154;DHT22;7157;53.144;7.570;2024-03-06T16:32:52;10.49;76.68
14154;DHT22;7157;53.144;7.570;2024-03-06T16:42:55;10.06;78.40
14154;DHT22;7157;53.144;7.570;2024-03-06T16:52:59;9.70;79.93
14154;DHT22;7157;53.144;7.570;2024-03-06T17:03:02;9.26;81.86
14154;DHT22;7157;53.144;7.570;2024-03-06T17:13:07;8.87;83.99
14154;DHT22;7157;53.144;7.570;2024-03-06T17:23:10;8.68;85.86
14154;DHT22;7157;53.144;7.570;2024-03-06T17:33:14;8.64;87.47
14154;DHT22;7157;53.144;7.570;2024-03-06T17:43:18;8.57;87.81
14154;DHT22;7157;53.144;7.570;2024-03-06T17:53:22;8.41;88.65
14154;DHT22;7157;53.144;7.570;2024-03-06T18:03:25;8.33;90.30
14154;DHT22;7157;53.144;7.570;2024-03-06T18:13:29;8.26;92.56
14154;DHT22;7157;53.144;7.570;2024-03-06T18:23:32;8.26;93.98
14154;DHT22;7157;53.144;7.570;2024-03-06T18:33:37;8.35;93.80
14154;DHT22;7157;53.144;7.570;2024-03-06T18:43:40;8.48;94.54
14154;DHT22;7157;53.144;7.570;2024-03-06T18:53:49;8.60;94.62
14154;DHT22;7157;53.144;7.570;2024-03-06T19:03:52;8.59;95.40
14154;DHT22;7157;53.144;7.570;2024-03-06T19:13:56;8.74;95.17
14154;DHT22;7157;53.144;7.570;2024-03-06T19:23:59;8.78;94.49
14154;DHT22;7157;53.144;7.570;2024-03-06T19:34:03;8.89;94.01
14154;DHT22;7157;53.144;7.570;2024-03-06T19:44:07;8.90;94.25
14154;DHT22;7157;53.144;7.570;2024-03-06T19:54:11;8.91;94.18
14154;DHT22;7157;53.144;7.570;2024-03-06T20:04:14;8.94;93.88
14154;DHT22;7157;53.144;7.570;2024-03-06T20:14:18;8.97;93.37
14154;DHT22;7157;53.144;7.570;2024-03-06T20:24:22;9.00;92.88
14154;DHT22;7157;53.144;7.570;2024-03-06T20:34:27;8.98;92.76
14154;DHT22;7157;53.144;7.570;2024-03-06T20:44:30;8.90;92.21
14154;DHT22;7157;53.144;7.570;2024-03-06T20:54:34;8.88;92.08
14154;DHT22;7157;53.144;7.570;2024-03-06T21:04:37;8.77;92.09
14154;DHT22;7157;53.144;7.570;2024-03-06T21:14:41;8.47;92.10
14154;DHT22;7157;53.144;7.570;2024-03-06T21:24:45;8.22;92.35
14154;DHT22;7157;53.144;7.570;2024-03-06T21:34:50;8.04;92.30
14154;DHT22;7157;53.144;7.570;2024-03-06T21:44:53;7.76;91.62
14154;DHT22;7157;53.144;7.570;2024-03-06T21:54:57;7.55;91.56
14154;DHT22;7157;53.144;7.570;2024-03-06T22:05:00;7.30;91.82
14154;DHT22;7157;53.144;7.570;2024-03-06T22:15:06;6.94;91.95
14154;DHT22;7157;53.144;7.570;2024-03-06T22:25:09;6.69;92.61
14154;DHT22;7157;53.144;7.570;2024-03-06T22:35:13;6.31;93.68
14154;DHT22;7157;53.144;7.570;2024-03-06T22:45:16;6.05;93.75
14154;DHT22;7157;53.144;7.570;2024-03-06T22:55:21;5.87;94.34
14154;DHT22;7157;53.144;7.570;2024-03-06T23:05:24;5.67;94.92
14154;DHT22;7157;53.144;7.570;2024-03-06T23:15:28;5.48;95.42
14154;DHT22;7157;53.144;7.570;2024-03-06T23:25:32;5.36;96.46
14154;DHT22;7157;53.144;7.570;2024-03-06T23:35:36;5.11;96.95
14154;DHT22;7157;53.144;7.570;2024-03-06T23:45:39;5.18;96.97
14154;DHT22;7157;53.144;7.570;2024-03-06T23:55:43;5.23;97.63
